KRQE

Details ICAO KRQE
Name WINDOW ROCK
Region United States
Timezone America/Denver (UTC-6.0)
Plans Departing 0
Arriving 6
Stats Elevation 6,742 ft / 2,055 m (AMSL)
Location 35.652067° -109.067376°
Runways 1
Magnetic Variation 9.567° E
Sunrise 2018-05-24 12:06:43 UTC / 2018-05-24 06:06:43 Local
Sunset 2018-05-25 02:22:25 UTC / 2018-05-24 20:22:25 Local
Advertisement - Login to hide

Runways

ID Width Length Bearing (true) Bearing (mag) Surface Threshold Offset Overrun Length
02 75 ft / 23 m 7,006 ft / 2,135 m 33.93° 24.36° Asphalt 0 ft / 0 m 0 ft / 0 m
20 75 ft / 23 m 7,006 ft / 2,135 m 213.94° 204.37° Asphalt 0 ft / 0 m 0 ft / 0 m

Map

Weather


0- 5 10 15 20 25 30 35+ Temperature / ° C

Clouds and Precipitation
Forecast for 2018-05-25 00:00 UTC. Updated an hour ago

Ground ~20,000 ft ~40,000 ft Winds

METAR

KRQE 242353Z AUTO 25010KT 10SM CLR 28/M12 A3019 RMK AO2 SLP122 T02781117 10283 20233 56014

TAF

Not found

Frequencies

Recorded 118.32 MHz ASOS
Unicom 122.80 MHz CTAF/UNICOM
Warning: Do not use this data for real-world aviation or navigation. No guarantee of current accuracy is given.